createdAt,value
2022-12-28T00:01:17.590Z,18.31
2022-12-28T00:03:45.939Z,18.14
2022-12-28T00:06:14.139Z,17.90
2022-12-28T00:08:42.522Z,18.05
2022-12-28T00:11:20.497Z,18.14
2022-12-28T00:13:58.153Z,17.85
2022-12-28T00:16:28.575Z,17.69
2022-12-28T00:18:56.401Z,16.86
2022-12-28T00:21:23.873Z,17.00
2022-12-28T00:23:51.407Z,16.27
2022-12-28T00:26:19.767Z,16.84
2022-12-28T00:28:47.013Z,16.41
2022-12-28T00:31:17.174Z,17.18
2022-12-28T00:33:44.865Z,16.98
2022-12-28T00:36:14.086Z,17.34
2022-12-28T00:38:41.885Z,16.85
2022-12-28T00:41:10.079Z,16.97
2022-12-28T00:43:37.465Z,17.38
2022-12-28T00:46:05.470Z,17.63
2022-12-28T00:48:34.239Z,17.56
2022-12-28T00:51:02.893Z,16.98
2022-12-28T00:53:30.339Z,17.29
2022-12-28T00:56:05.503Z,17.08
2022-12-28T00:58:32.872Z,16.65
2022-12-28T01:01:00.387Z,16.87
2022-12-28T01:03:28.241Z,17.12
2022-12-28T01:05:56.966Z,17.23
2022-12-28T01:08:24.322Z,17.04
2022-12-28T01:10:51.686Z,16.52
2022-12-28T01:13:19.135Z,16.85
2022-12-28T01:15:46.293Z,16.72
2022-12-28T01:18:13.523Z,16.62
2022-12-28T01:20:41.281Z,16.61
2022-12-28T01:23:10.308Z,16.67
2022-12-28T01:25:37.621Z,16.94
2022-12-28T01:28:05.580Z,17.26
2022-12-28T01:30:32.835Z,17.31
2022-12-28T01:33:00.140Z,17.18
2022-12-28T01:35:27.593Z,16.76
2022-12-28T01:37:56.989Z,17.10
2022-12-28T01:40:25.786Z,17.14
2022-12-28T01:42:53.151Z,17.05
2022-12-28T01:45:22.044Z,17.42
2022-12-28T01:47:54.187Z,17.29
2022-12-28T01:50:25.169Z,17.28
2022-12-28T01:52:55.972Z,17.43
2022-12-28T01:55:29.819Z,17.33
2022-12-28T01:58:04.320Z,17.30
2022-12-28T02:00:31.910Z,17.43
2022-12-28T02:03:01.684Z,17.43
2022-12-28T02:05:34.879Z,17.40
2022-12-28T02:08:08.289Z,17.24
2022-12-28T02:10:44.493Z,17.12
2022-12-28T02:13:15.297Z,17.02
2022-12-28T02:15:43.633Z,16.89
2022-12-28T02:18:12.477Z,16.91
2022-12-28T02:20:57.217Z,16.68
2022-12-28T02:23:51.743Z,16.89
2022-12-28T02:26:38.831Z,17.07
2022-12-28T02:29:45.434Z,17.23
2022-12-28T02:32:28.865Z,17.20
2022-12-28T02:35:06.917Z,17.15
2022-12-28T02:37:42.314Z,17.04
2022-12-28T02:40:14.824Z,17.04
2022-12-28T02:42:44.175Z,16.52
2022-12-28T02:48:05.111Z,16.17
2022-12-28T02:50:41.191Z,16.11
2022-12-28T02:53:27.852Z,16.28
2022-12-28T02:56:08.442Z,16.65
2022-12-28T02:59:05.594Z,16.64
2022-12-28T03:02:03.962Z,16.58
2022-12-28T03:04:42.989Z,16.23
2022-12-28T03:07:17.827Z,16.38
2022-12-28T03:09:54.008Z,16.19
2022-12-28T03:12:28.977Z,16.29
2022-12-28T03:15:02.323Z,16.38
2022-12-28T03:17:31.868Z,16.71
2022-12-28T03:20:05.372Z,16.76
2022-12-28T03:22:37.371Z,16.99
2022-12-28T03:25:11.624Z,17.11
2022-12-28T03:27:39.856Z,16.96
2022-12-28T03:30:13.397Z,16.91
2022-12-28T03:32:40.951Z,16.78
2022-12-28T03:35:11.003Z,16.46
2022-12-28T03:37:43.766Z,16.30
2022-12-28T03:40:19.951Z,16.33
2022-12-28T03:42:51.287Z,16.25
2022-12-28T03:45:45.764Z,16.19
2022-12-28T03:48:10.785Z,16.27
2022-12-28T03:50:43.040Z,16.25
2022-12-28T03:53:11.037Z,16.45
2022-12-28T03:55:38.584Z,16.38
2022-12-28T03:58:06.424Z,16.42
2022-12-28T04:00:35.108Z,16.45
2022-12-28T04:03:01.930Z,16.43
2022-12-28T04:05:28.813Z,16.35
2022-12-28T04:07:57.699Z,16.24
2022-12-28T04:10:25.434Z,16.21
2022-12-28T04:12:55.631Z,16.57
2022-12-28T04:15:23.029Z,16.55
2022-12-28T04:17:50.831Z,16.62
2022-12-28T04:20:18.302Z,16.48
2022-12-28T04:22:45.756Z,16.53
2022-12-28T04:25:14.707Z,16.37
2022-12-28T04:27:41.935Z,16.27
2022-12-28T04:30:10.445Z,16.21
2022-12-28T04:32:37.249Z,16.10
2022-12-28T04:35:05.365Z,16.10
2022-12-28T04:37:33.059Z,16.12
2022-12-28T04:40:00.316Z,16.13
2022-12-28T04:42:29.169Z,16.32
2022-12-28T04:44:56.547Z,16.55
2022-12-28T04:47:24.047Z,16.54
2022-12-28T04:49:52.501Z,16.58
2022-12-28T04:52:19.883Z,16.29
2022-12-28T04:54:47.105Z,16.17
2022-12-28T04:57:14.593Z,16.37
2022-12-28T04:59:43.844Z,16.08
2022-12-28T05:02:11.405Z,16.26
2022-12-28T05:04:38.936Z,16.35
2022-12-28T05:07:06.403Z,16.30
2022-12-28T05:09:33.917Z,16.47
2022-12-28T05:12:01.277Z,16.38
2022-12-28T05:14:33.633Z,16.32
2022-12-28T05:17:05.842Z,16.23
2022-12-28T05:19:32.920Z,16.25
2022-12-28T05:22:00.283Z,16.07
2022-12-28T05:24:27.580Z,16.06
2022-12-28T05:26:55.506Z,16.23
2022-12-28T05:29:23.065Z,16.21
2022-12-28T05:31:50.272Z,16.35
2022-12-28T05:34:19.111Z,16.31
2022-12-28T05:36:46.330Z,16.42
2022-12-28T05:39:13.684Z,16.40
2022-12-28T05:41:41.128Z,16.45
2022-12-28T05:44:08.412Z,16.67
2022-12-28T05:46:35.854Z,16.63
2022-12-28T05:49:03.704Z,16.73
2022-12-28T05:51:33.041Z,16.75
2022-12-28T05:54:01.704Z,16.91
2022-12-28T05:56:30.795Z,16.87
2022-12-28T05:59:00.581Z,16.86
2022-12-28T06:01:30.954Z,16.75
2022-12-28T06:04:02.458Z,16.78
2022-12-28T06:06:30.883Z,16.75
2022-12-28T06:08:59.541Z,16.79
2022-12-28T06:11:28.634Z,16.84
2022-12-28T06:13:57.845Z,16.98
2022-12-28T06:16:26.996Z,16.80
2022-12-28T06:18:54.283Z,16.58
2022-12-28T06:21:24.711Z,16.65
2022-12-28T06:23:52.674Z,16.39
2022-12-28T06:26:22.069Z,16.45
2022-12-28T06:28:49.986Z,16.37
2022-12-28T06:31:18.465Z,16.35
2022-12-28T06:33:46.581Z,16.29
2022-12-28T06:36:19.898Z,16.05
2022-12-28T06:38:48.682Z,16.41
2022-12-28T06:41:17.504Z,16.45
2022-12-28T06:43:46.549Z,16.36
2022-12-28T06:46:15.303Z,16.42
2022-12-28T06:48:43.054Z,16.34
2022-12-28T06:51:12.923Z,16.44
2022-12-28T06:53:40.686Z,16.39
2022-12-28T06:56:11.447Z,16.38
2022-12-28T06:58:38.876Z,16.54
2022-12-28T07:01:09.481Z,16.87
2022-12-28T07:03:36.651Z,16.87
2022-12-28T07:06:05.008Z,17.08
2022-12-28T07:08:32.744Z,17.03
2022-12-28T07:11:03.274Z,17.05
2022-12-28T07:13:30.779Z,16.78
2022-12-28T07:16:01.485Z,16.81
2022-12-28T07:18:30.411Z,16.77
2022-12-28T07:21:02.066Z,16.82
2022-12-28T07:23:29.518Z,17.29
2022-12-28T07:25:57.083Z,17.19
2022-12-28T07:28:24.736Z,17.13
2022-12-28T07:30:52.283Z,17.23
2022-12-28T07:33:19.622Z,17.20
2022-12-28T07:35:48.464Z,17.13
2022-12-28T07:38:21.149Z,17.13
2022-12-28T07:40:49.194Z,16.86
2022-12-28T07:43:16.510Z,16.94
2022-12-28T07:45:43.764Z,16.62
2022-12-28T07:48:11.200Z,16.56
2022-12-28T07:50:38.699Z,16.60
2022-12-28T07:53:07.552Z,16.11
2022-12-28T07:55:35.013Z,16.34
2022-12-28T07:58:02.205Z,16.33
2022-12-28T08:00:29.575Z,16.58
2022-12-28T08:02:57.157Z,16.41
2022-12-28T08:05:24.588Z,16.40
2022-12-28T08:07:52.528Z,16.28
2022-12-28T08:10:21.446Z,16.50
2022-12-28T08:12:48.636Z,16.41
2022-12-28T08:15:16.053Z,16.69
2022-12-28T08:17:43.555Z,16.79
2022-12-28T08:20:11.533Z,16.63
2022-12-28T08:22:38.277Z,16.28
2022-12-28T08:25:05.688Z,16.66
2022-12-28T08:27:38.491Z,16.88
2022-12-28T08:30:07.642Z,16.70
2022-12-28T08:32:35.087Z,16.33
2022-12-28T08:35:02.244Z,17.01
2022-12-28T08:37:29.566Z,16.69
2022-12-28T08:39:57.042Z,16.87
2022-12-28T08:42:26.101Z,16.78
2022-12-28T08:44:54.999Z,17.08
2022-12-28T08:47:22.209Z,16.20
2022-12-28T08:49:49.535Z,16.62
2022-12-28T08:52:17.051Z,16.45
2022-12-28T08:54:44.403Z,16.96
2022-12-28T08:57:11.725Z,16.14
2022-12-28T08:59:38.992Z,16.68
2022-12-28T09:02:07.853Z,16.39
2022-12-28T09:04:35.155Z,16.48
2022-12-28T09:07:02.628Z,16.48
2022-12-28T09:09:29.858Z,16.71
2022-12-28T09:11:57.025Z,17.02
2022-12-28T09:14:24.893Z,16.67
2022-12-28T09:16:53.260Z,17.07
2022-12-28T09:19:22.063Z,17.37
2022-12-28T09:21:49.613Z,17.28
2022-12-28T09:24:17.171Z,17.25
2022-12-28T09:26:44.090Z,17.17
2022-12-28T09:29:13.904Z,16.64
2022-12-28T09:31:41.643Z,17.22
2022-12-28T09:36:59.565Z,16.86
2022-12-28T09:39:26.396Z,16.94
2022-12-28T09:41:57.017Z,17.55
2022-12-28T09:44:47.881Z,17.94
2022-12-28T09:47:22.251Z,17.43
2022-12-28T09:50:03.314Z,17.73
2022-12-28T09:52:34.444Z,18.11
2022-12-28T09:55:07.905Z,18.35
2022-12-28T09:57:39.463Z,18.43
2022-12-28T10:00:14.810Z,18.40
2022-12-28T10:02:48.201Z,18.43
2022-12-28T10:05:16.657Z,18.59
2022-12-28T10:07:45.826Z,18.50
2022-12-28T10:10:17.676Z,18.37
2022-12-28T10:12:46.107Z,18.71
2022-12-28T10:15:14.652Z,18.73
2022-12-28T10:17:43.623Z,18.30
2022-12-28T10:20:16.517Z,17.83
2022-12-28T10:22:50.340Z,18.11
2022-12-28T10:25:20.660Z,18.42
2022-12-28T10:27:48.524Z,18.18
2022-12-28T10:30:18.790Z,18.63
2022-12-28T10:32:51.345Z,17.93
2022-12-28T10:35:30.055Z,18.14
2022-12-28T10:38:02.572Z,18.66
2022-12-28T10:40:33.360Z,17.67
2022-12-28T10:43:04.140Z,18.34
2022-12-28T10:45:40.349Z,18.30
2022-12-28T10:48:15.801Z,19.06
2022-12-28T10:50:48.243Z,19.33
2022-12-28T10:53:27.669Z,18.41
2022-12-28T10:56:07.577Z,18.66
2022-12-28T10:58:35.445Z,18.20
2022-12-28T11:01:06.928Z,18.34
2022-12-28T11:03:37.670Z,18.84
2022-12-28T11:06:18.672Z,18.55
2022-12-28T11:09:03.357Z,18.44
2022-12-28T11:11:31.289Z,18.85
2022-12-28T11:14:05.381Z,18.46
2022-12-28T11:16:36.576Z,18.25
2022-12-28T11:19:04.874Z,19.32
2022-12-28T11:21:33.915Z,18.04
2022-12-28T11:24:04.505Z,18.69
2022-12-28T11:26:34.175Z,19.03
2022-12-28T11:29:02.282Z,18.40
2022-12-28T11:31:34.546Z,18.63
2022-12-28T11:34:03.958Z,19.02
2022-12-28T11:36:33.916Z,18.60
2022-12-28T11:39:43.284Z,17.94
2022-12-28T11:42:38.035Z,17.72
2022-12-28T11:44:58.133Z,18.35
2022-12-28T11:47:28.821Z,18.19
2022-12-28T11:50:17.132Z,18.95
2022-12-28T11:52:50.426Z,18.18
2022-12-28T11:55:41.415Z,18.42
2022-12-28T11:58:47.984Z,18.99
2022-12-28T12:01:55.124Z,19.13
2022-12-28T12:04:41.338Z,19.14
2022-12-28T12:07:45.106Z,18.29
2022-12-28T12:10:36.388Z,18.57
2022-12-28T12:13:40.494Z,18.24
2022-12-28T12:16:19.180Z,19.07
2022-12-28T12:18:50.814Z,19.17
2022-12-28T12:21:29.209Z,18.50
2022-12-28T12:24:02.798Z,18.70
2022-12-28T12:26:36.189Z,18.45
2022-12-28T12:29:14.594Z,18.90
2022-12-28T12:31:44.725Z,19.06
2022-12-28T12:34:19.879Z,18.26
2022-12-28T12:37:27.551Z,18.80
2022-12-28T12:40:13.085Z,18.53
2022-12-28T12:42:56.192Z,18.72
2022-12-28T12:45:35.990Z,19.04
2022-12-28T12:48:24.553Z,18.79
2022-12-28T12:51:06.810Z,18.62
2022-12-28T12:53:52.672Z,19.58
2022-12-28T12:56:33.456Z,18.13
2022-12-28T12:59:19.434Z,18.34
2022-12-28T13:01:54.495Z,19.40
2022-12-28T13:04:26.582Z,19.74
2022-12-28T13:07:03.541Z,19.66
2022-12-28T13:09:34.519Z,19.68
2022-12-28T13:12:02.545Z,19.49
2022-12-28T13:14:30.350Z,20.08
2022-12-28T13:17:00.743Z,20.05
2022-12-28T13:19:29.752Z,19.01
2022-12-28T13:21:57.806Z,18.58
2022-12-28T13:24:26.839Z,19.31
2022-12-28T13:26:55.301Z,18.95
2022-12-28T13:29:24.491Z,19.87
2022-12-28T13:31:52.236Z,19.25
2022-12-28T13:34:24.462Z,20.01
2022-12-28T13:36:53.478Z,19.86
2022-12-28T13:39:21.480Z,19.81
2022-12-28T13:41:50.582Z,20.07
2022-12-28T13:44:44.650Z,20.14
2022-12-28T13:47:17.685Z,20.13
2022-12-28T13:49:53.285Z,19.75
2022-12-28T13:52:26.337Z,19.75
2022-12-28T13:54:58.044Z,19.66
2022-12-28T14:00:17.876Z,20.47
2022-12-28T14:02:46.482Z,20.25
2022-12-28T14:05:19.104Z,19.30
2022-12-28T14:07:47.299Z,19.27
2022-12-28T14:10:15.177Z,20.03
2022-12-28T14:12:43.829Z,20.52
2022-12-28T14:15:12.433Z,20.05
2022-12-28T14:17:41.121Z,19.83
2022-12-28T14:20:09.988Z,19.55
2022-12-28T14:22:40.446Z,19.76
2022-12-28T14:25:10.032Z,20.41
2022-12-28T14:27:40.599Z,20.29
2022-12-28T14:30:22.220Z,20.19
2022-12-28T14:32:49.931Z,20.39
2022-12-28T14:35:20.714Z,20.24
2022-12-28T14:37:54.261Z,20.69
2022-12-28T14:40:31.356Z,20.92
2022-12-28T14:43:04.016Z,20.77
2022-12-28T14:48:35.711Z,20.80
2022-12-28T14:51:04.979Z,20.84
2022-12-28T14:53:33.708Z,20.72
2022-12-28T14:56:06.622Z,20.78
2022-12-28T14:58:49.236Z,20.95
2022-12-28T15:01:18.583Z,20.90
2022-12-28T15:03:51.567Z,21.18
2022-12-28T15:06:19.222Z,21.59
2022-12-28T15:08:49.484Z,21.73
2022-12-28T15:11:18.329Z,21.58
2022-12-28T15:13:46.069Z,21.56
2022-12-28T15:16:14.410Z,21.27
2022-12-28T15:18:41.661Z,21.20
2022-12-28T15:21:09.587Z,20.80
2022-12-28T15:23:36.297Z,20.87
2022-12-28T15:26:07.750Z,20.81
2022-12-28T15:28:35.300Z,20.86
2022-12-28T15:31:05.068Z,20.84
2022-12-28T15:33:32.428Z,20.70
2022-12-28T15:36:03.552Z,20.58
2022-12-28T15:38:30.920Z,20.73
2022-12-28T15:40:58.303Z,20.79
2022-12-28T15:43:27.205Z,20.91
2022-12-28T15:45:54.105Z,20.96
2022-12-28T15:48:21.236Z,20.81
2022-12-28T15:50:48.624Z,20.40
2022-12-28T15:53:17.306Z,20.03
2022-12-28T15:55:44.831Z,20.64
2022-12-28T15:58:12.303Z,20.57
2022-12-28T16:00:45.747Z,20.55
2022-12-28T16:03:14.251Z,20.07
2022-12-28T16:05:40.997Z,20.24
2022-12-28T16:08:07.827Z,20.47
2022-12-28T16:10:35.599Z,20.17
2022-12-28T16:13:02.336Z,20.25
2022-12-28T16:15:29.076Z,20.00
2022-12-28T16:17:57.803Z,19.69
2022-12-28T16:20:25.515Z,19.58
2022-12-28T16:22:52.808Z,19.63
2022-12-28T16:25:20.421Z,19.52
2022-12-28T16:27:47.816Z,19.40
2022-12-28T16:30:15.234Z,19.56
2022-12-28T16:32:43.396Z,19.60
2022-12-28T16:35:11.536Z,19.71
2022-12-28T16:37:38.948Z,19.93
2022-12-28T16:40:07.738Z,19.90
2022-12-28T16:42:35.192Z,19.84
2022-12-28T16:45:02.859Z,19.86
2022-12-28T16:47:30.327Z,19.87
2022-12-28T16:49:57.611Z,19.80
2022-12-28T16:52:26.404Z,19.96
2022-12-28T16:54:53.965Z,20.04
2022-12-28T16:57:21.759Z,19.85
2022-12-28T16:59:50.189Z,19.94
2022-12-28T17:02:17.844Z,19.93
2022-12-28T17:04:45.391Z,19.87
2022-12-28T17:07:12.139Z,19.97
2022-12-28T17:09:45.324Z,20.10
2022-12-28T17:12:15.536Z,19.88
2022-12-28T17:14:43.055Z,20.02
2022-12-28T17:17:10.411Z,19.92
2022-12-28T17:19:37.227Z,19.50
2022-12-28T17:22:05.805Z,19.69
2022-12-28T17:24:33.303Z,19.82
2022-12-28T17:27:07.692Z,19.93
2022-12-28T17:29:37.425Z,19.86
2022-12-28T17:32:06.192Z,20.08
2022-12-28T17:34:33.973Z,19.98
2022-12-28T17:37:01.417Z,20.08
2022-12-28T17:39:32.031Z,19.93
2022-12-28T17:42:03.951Z,19.93
2022-12-28T17:44:31.577Z,19.84
2022-12-28T17:46:58.795Z,19.95
2022-12-28T17:49:26.405Z,20.01
2022-12-28T17:51:53.722Z,20.07
2022-12-28T17:54:21.034Z,19.79
2022-12-28T17:56:48.492Z,20.19
2022-12-28T17:59:17.328Z,19.78
2022-12-28T18:01:45.119Z,19.78
2022-12-28T18:04:12.737Z,20.16
2022-12-28T18:06:40.094Z,20.02
2022-12-28T18:09:07.498Z,20.10
2022-12-28T18:11:35.020Z,20.07
2022-12-28T18:14:02.324Z,19.77
2022-12-28T18:16:31.253Z,19.78
2022-12-28T18:18:58.762Z,19.69
2022-12-28T18:21:26.007Z,19.64
2022-12-28T18:23:53.608Z,19.86
2022-12-28T18:26:22.097Z,19.86
2022-12-28T18:28:49.402Z,19.88
2022-12-28T18:31:16.825Z,20.03
2022-12-28T18:33:45.894Z,19.83
2022-12-28T18:36:17.324Z,19.84
2022-12-28T18:38:46.833Z,19.76
2022-12-28T18:41:16.343Z,19.79
2022-12-28T18:43:44.204Z,19.88
2022-12-28T18:46:12.284Z,20.00
2022-12-28T18:48:41.065Z,19.97
2022-12-28T18:51:11.615Z,19.87
2022-12-28T18:53:40.768Z,19.58
2022-12-28T18:56:11.072Z,19.82
2022-12-28T18:58:40.253Z,19.95
2022-12-28T19:01:25.419Z,19.94
2022-12-28T19:03:59.303Z,19.91
2022-12-28T19:06:28.476Z,19.90
2022-12-28T19:08:59.487Z,19.96
2022-12-28T19:11:27.074Z,20.06
2022-12-28T19:13:54.727Z,20.00
2022-12-28T19:16:28.569Z,19.84
2022-12-28T19:18:57.858Z,19.87
2022-12-28T19:21:29.199Z,19.80
2022-12-28T19:23:59.345Z,19.82
2022-12-28T19:26:26.665Z,19.72
2022-12-28T19:28:54.179Z,19.85
2022-12-28T19:31:22.189Z,19.36
2022-12-28T19:33:49.500Z,19.58
2022-12-28T19:36:16.766Z,19.37
2022-12-28T19:38:45.763Z,19.19
2022-12-28T19:41:15.511Z,19.29
2022-12-28T19:43:43.703Z,19.55
2022-12-28T19:46:14.554Z,19.41
2022-12-28T19:48:41.828Z,18.90
2022-12-28T19:51:08.866Z,18.59
2022-12-28T19:53:36.133Z,18.64
2022-12-28T19:56:07.419Z,18.69
2022-12-28T19:58:36.403Z,18.55
2022-12-28T20:01:04.657Z,18.58
2022-12-28T20:03:31.970Z,18.61
2022-12-28T20:06:05.574Z,18.75
2022-12-28T20:08:32.325Z,18.47
2022-12-28T20:11:00.081Z,18.66
2022-12-28T20:13:29.396Z,18.57
2022-12-28T20:15:56.166Z,18.60
2022-12-28T20:18:23.430Z,18.72
2022-12-28T20:21:18.603Z,18.76
2022-12-28T20:23:38.624Z,18.86
2022-12-28T20:26:06.144Z,19.08
2022-12-28T20:28:34.854Z,19.01
2022-12-28T20:31:03.988Z,18.96
2022-12-28T20:33:33.024Z,18.91
2022-12-28T20:36:02.518Z,18.86
2022-12-28T20:38:29.356Z,18.68
2022-12-28T20:41:07.895Z,18.85
2022-12-28T20:43:37.253Z,18.74
2022-12-28T20:46:10.953Z,18.93
2022-12-28T20:48:38.385Z,19.01
2022-12-28T20:51:05.980Z,19.06
2022-12-28T20:53:33.373Z,19.17
2022-12-28T20:56:06.579Z,18.86
2022-12-28T20:58:37.070Z,19.02
2022-12-28T21:01:05.434Z,18.85
2022-12-28T21:03:33.262Z,19.04
2022-12-28T21:06:00.687Z,18.79
2022-12-28T21:08:30.860Z,18.71
2022-12-28T21:10:59.153Z,19.17
2022-12-28T21:13:27.739Z,18.74
2022-12-28T21:15:56.500Z,19.18
2022-12-28T21:18:24.107Z,19.02
2022-12-28T21:20:53.466Z,19.41
2022-12-28T21:23:21.265Z,19.41
2022-12-28T21:25:48.239Z,19.79
2022-12-28T21:28:16.325Z,19.58
2022-12-28T21:30:52.359Z,19.53
2022-12-28T21:33:20.742Z,19.37
2022-12-28T21:35:57.751Z,19.53
2022-12-28T21:38:24.767Z,19.54
2022-12-28T21:40:58.565Z,19.52
2022-12-28T21:43:25.968Z,19.06
2022-12-28T21:46:01.976Z,19.39
2022-12-28T21:48:32.793Z,19.21
2022-12-28T21:51:07.768Z,19.62
2022-12-28T21:53:35.404Z,19.40
2022-12-28T21:56:03.058Z,19.23
2022-12-28T21:58:30.418Z,19.42
2022-12-28T22:00:59.276Z,19.28
2022-12-28T22:03:26.871Z,19.04
2022-12-28T22:05:58.723Z,19.28
2022-12-28T22:08:26.193Z,19.32
2022-12-28T22:10:56.847Z,19.25
2022-12-28T22:13:23.970Z,19.20
2022-12-28T22:15:50.664Z,19.56
2022-12-28T22:18:44.492Z,19.45
2022-12-28T22:21:08.797Z,19.45
2022-12-28T22:23:35.975Z,19.33
2022-12-28T22:26:03.584Z,19.09
2022-12-28T22:28:31.542Z,19.17
2022-12-28T22:30:58.543Z,19.26
2022-12-28T22:33:25.724Z,19.16
2022-12-28T22:35:53.227Z,19.31
2022-12-28T22:38:22.017Z,19.43
2022-12-28T22:40:57.495Z,19.31
2022-12-28T22:43:24.637Z,19.20
2022-12-28T22:46:01.589Z,19.12
2022-12-28T22:48:29.120Z,18.77
2022-12-28T22:51:00.672Z,18.72
2022-12-28T22:53:29.627Z,18.82
2022-12-28T22:55:58.057Z,18.82
2022-12-28T22:58:25.799Z,18.70
2022-12-28T23:00:53.832Z,19.02
2022-12-28T23:03:21.268Z,18.79
2022-12-28T23:05:52.287Z,19.13
2022-12-28T23:08:19.697Z,18.63
2022-12-28T23:10:56.471Z,18.58
2022-12-28T23:13:24.446Z,18.85
2022-12-28T23:15:59.908Z,18.80
2022-12-28T23:18:28.506Z,19.13
2022-12-28T23:20:58.236Z,19.25
2022-12-28T23:23:25.789Z,19.15
2022-12-28T23:25:54.971Z,19.27
2022-12-28T23:28:22.726Z,19.40
2022-12-28T23:30:51.482Z,19.36
2022-12-28T23:33:20.241Z,19.33
2022-12-28T23:35:47.729Z,19.06
2022-12-28T23:38:15.292Z,18.76
2022-12-28T23:40:42.868Z,19.20
2022-12-28T23:43:11.945Z,19.04
2022-12-28T23:45:39.322Z,19.22
2022-12-28T23:48:06.965Z,19.10
2022-12-28T23:50:33.721Z,18.96
2022-12-28T23:53:00.448Z,19.23
2022-12-28T23:55:27.842Z,19.05
2022-12-28T23:57:55.164Z,18.93
